sensor_id;sensor_type;location;lat;lon;timestamp;pressure;altitude;pressure_sealevel;temperature;humidity
44734;BME280;30462;52.446;-1.930;2023-02-17T00:00:18;100383.8633;;;;
44734;BME280;30462;52.446;-1.930;2023-02-17T00:01:19;100383.6055;;;;
44734;BME280;30462;52.446;-1.930;2023-02-17T00:02:18;100384.2148;;;;
44734;BME280;30462;52.446;-1.930;2023-02-17T00:03:17;100385.9766;;;;
44734;BME280;30462;52.446;-1.930;2023-02-17T00:04:17;100384.1523;;;;
44734;BME280;30462;52.446;-1.930;2023-02-17T00:05:18;100382.5859;;;;
44734;BME280;30462;52.446;-1.930;2023-02-17T00:06:19;100384.2461;;;;
44734;BME280;30462;52.446;-1.930;2023-02-17T00:07:18;100385.4688;;;;
44734;BME280;30462;52.446;-1.930;2023-02-17T00:08:18;100387.0625;;;;
44734;BME280;30462;52.446;-1.930;2023-02-17T00:09:18;100383.8984;;;;
44734;BME280;30462;52.446;-1.930;2023-02-17T00:10:18;100387.4023;;;;
44734;BME280;30462;52.446;-1.930;2023-02-17T00:11:18;100386.8984;;;;
44734;BME280;30462;52.446;-1.930;2023-02-17T00:12:18;100387.4336;;;;
44734;BME280;30462;52.446;-1.930;2023-02-17T00:13:18;100390.3008;;;;
44734;BME280;30462;52.446;-1.930;2023-02-17T00:14:18;100386.082;;;;
44734;BME280;30462;52.446;-1.930;2023-02-17T00:15:19;100384.8633;;;;
44734;BME280;30462;52.446;-1.930;2023-02-17T00:16:19;100378.4375;;;;
44734;BME280;30462;52.446;-1.930;2023-02-17T00:17:17;100381.0391;;;;
44734;BME280;30462;52.446;-1.930;2023-02-17T00:18:18;100379.5781;;;;
44734;BME280;30462;52.446;-1.930;2023-02-17T00:19:18;100378.6953;;;;
44734;BME280;30462;52.446;-1.930;2023-02-17T00:20:18;100381.1602;;;;
44734;BME280;30462;52.446;-1.930;2023-02-17T00:21:19;100378.4375;;;;
44734;BME280;30462;52.446;-1.930;2023-02-17T00:22:17;100375.8828;;;;
44734;BME280;30462;52.446;-1.930;2023-02-17T00:23:17;100379.2266;;;;
44734;BME280;30462;52.446;-1.930;2023-02-17T00:24:18;100378.0781;;;;
44734;BME280;30462;52.446;-1.930;2023-02-17T00:25:18;100373.4961;;;;
44734;BME280;30462;52.446;-1.930;2023-02-17T00:26:19;100380.5039;;;;
44734;BME280;30462;52.446;-1.930;2023-02-17T00:27:18;100376.1836;;;;
44734;BME280;30462;52.446;-1.930;2023-02-17T00:28:18;100374.9727;;;;
44734;BME280;30462;52.446;-1.930;2023-02-17T00:29:18;100370.2695;;;;
44734;BME280;30462;52.446;-1.930;2023-02-17T00:30:18;100371.5547;;;;
44734;BME280;30462;52.446;-1.930;2023-02-17T00:31:18;100363.7461;;;;
44734;BME280;30462;52.446;-1.930;2023-02-17T00:32:18;100362.6875;;;;
44734;BME280;30462;52.446;-1.930;2023-02-17T00:33:18;100361.875;;;;
44734;BME280;30462;52.446;-1.930;2023-02-17T00:34:18;100354.8359;;;;
44734;BME280;30462;52.446;-1.930;2023-02-17T00:35:18;100360.4258;;;;
44734;BME280;30462;52.446;-1.930;2023-02-17T00:36:18;100360.7695;;;;
44734;BME280;30462;52.446;-1.930;2023-02-17T00:37:18;100357.457;;;;
44734;BME280;30462;52.446;-1.930;2023-02-17T00:38:18;100359.543;;;;
44734;BME280;30462;52.446;-1.930;2023-02-17T00:39:18;100352.0469;;;;
44734;BME280;30462;52.446;-1.930;2023-02-17T00:40:18;100355.7539;;;;
44734;BME280;30462;52.446;-1.930;2023-02-17T00:41:18;100357.3398;;;;
44734;BME280;30462;52.446;-1.930;2023-02-17T00:42:18;100352.0313;;;;
44734;BME280;30462;52.446;-1.930;2023-02-17T00:43:18;100347.6094;;;;
44734;BME280;30462;52.446;-1.930;2023-02-17T00:44:19;100349.3359;;;;
44734;BME280;30462;52.446;-1.930;2023-02-17T00:45:18;100346.6992;;;;
44734;BME280;30462;52.446;-1.930;2023-02-17T00:46:18;100345.9492;;;;
44734;BME280;30462;52.446;-1.930;2023-02-17T00:47:18;100348.6992;;;;
44734;BME280;30462;52.446;-1.930;2023-02-17T00:48:18;100345.4141;;;;
44734;BME280;30462;52.446;-1.930;2023-02-17T00:49:19;100343.8789;;;;
44734;BME280;30462;52.446;-1.930;2023-02-17T00:50:18;100341.6914;;;;
44734;BME280;30462;52.446;-1.930;2023-02-17T00:51:17;100334.9688;;;;
44734;BME280;30462;52.446;-1.930;2023-02-17T00:52:18;100327.3906;;;;
44734;BME280;30462;52.446;-1.930;2023-02-17T00:53:18;100322.9453;;;;
44734;BME280;30462;52.446;-1.930;2023-02-17T00:54:18;100325.2852;;;;
44734;BME280;30462;52.446;-1.930;2023-02-17T00:55:18;100317.75;;;;
44734;BME280;30462;52.446;-1.930;2023-02-17T00:56:19;100318.1875;;;;
44734;BME280;30462;52.446;-1.930;2023-02-17T00:57:18;100319.9297;;;;
44734;BME280;30462;52.446;-1.930;2023-02-17T00:58:18;100321.4023;;;;
44734;BME280;30462;52.446;-1.930;2023-02-17T00:59:17;100322.6641;;;;
44734;BME280;30462;52.446;-1.930;2023-02-17T01:00:18;100315.2305;;;;
44734;BME280;30462;52.446;-1.930;2023-02-17T01:01:18;100311.25;;;;
44734;BME280;30462;52.446;-1.930;2023-02-17T01:02:18;100308.3398;;;;
44734;BME280;30462;52.446;-1.930;2023-02-17T01:03:18;100301.3906;;;;
44734;BME280;30462;52.446;-1.930;2023-02-17T01:04:18;100307.2188;;;;
44734;BME280;30462;52.446;-1.930;2023-02-17T01:05:18;100307.4883;;;;
44734;BME280;30462;52.446;-1.930;2023-02-17T01:06:21;100310.6055;;;;
44734;BME280;30462;52.446;-1.930;2023-02-17T01:07:18;100311;;;;
44734;BME280;30462;52.446;-1.930;2023-02-17T01:08:18;100301.7891;;;;
44734;BME280;30462;52.446;-1.930;2023-02-17T01:09:18;100316.4375;;;;
44734;BME280;30462;52.446;-1.930;2023-02-17T01:10:18;100311.1914;;;;
44734;BME280;30462;52.446;-1.930;2023-02-17T01:11:19;100313.1172;;;;
44734;BME280;30462;52.446;-1.930;2023-02-17T01:12:18;100309.2305;;;;
44734;BME280;30462;52.446;-1.930;2023-02-17T01:13:18;100304.7383;;;;
44734;BME280;30462;52.446;-1.930;2023-02-17T01:14:18;100312.9414;;;;
44734;BME280;30462;52.446;-1.930;2023-02-17T01:15:18;100294.9414;;;;
44734;BME280;30462;52.446;-1.930;2023-02-17T01:16:21;100310.3359;;;;
44734;BME280;30462;52.446;-1.930;2023-02-17T01:17:18;100306.1797;;;;
44734;BME280;30462;52.446;-1.930;2023-02-17T01:18:18;100308.9727;;;;
44734;BME280;30462;52.446;-1.930;2023-02-17T01:19:18;100306.7773;;;;
44734;BME280;30462;52.446;-1.930;2023-02-17T01:20:18;100310.6328;;;;
44734;BME280;30462;52.446;-1.930;2023-02-17T01:21:21;100309.7344;;;;
44734;BME280;30462;52.446;-1.930;2023-02-17T01:22:18;100309.9766;;;;
44734;BME280;30462;52.446;-1.930;2023-02-17T01:23:18;100300.6328;;;;
44734;BME280;30462;52.446;-1.930;2023-02-17T01:24:18;100305.3164;;;;
44734;BME280;30462;52.446;-1.930;2023-02-17T01:25:18;100302.5977;;;;
44734;BME280;30462;52.446;-1.930;2023-02-17T01:26:20;100304.9648;;;;
44734;BME280;30462;52.446;-1.930;2023-02-17T01:27:17;100299.1016;;;;
44734;BME280;30462;52.446;-1.930;2023-02-17T01:28:19;100304.2305;;;;
44734;BME280;30462;52.446;-1.930;2023-02-17T01:29:18;100308.5469;;;;
44734;BME280;30462;52.446;-1.930;2023-02-17T01:30:18;100315.1445;;;;
44734;BME280;30462;52.446;-1.930;2023-02-17T01:31:19;100307.1211;;;;
44734;BME280;30462;52.446;-1.930;2023-02-17T01:32:18;100312.3672;;;;
44734;BME280;30462;52.446;-1.930;2023-02-17T01:33:18;100299.9102;;;;
44734;BME280;30462;52.446;-1.930;2023-02-17T01:34:18;100308.2852;;;;
44734;BME280;30462;52.446;-1.930;2023-02-17T01:35:18;100305.6133;;;;
44734;BME280;30462;52.446;-1.930;2023-02-17T01:36:18;100303.0625;;;;
44734;BME280;30462;52.446;-1.930;2023-02-17T01:37:18;100290.9492;;;;
44734;BME280;30462;52.446;-1.930;2023-02-17T01:38:17;100276.543;;;;
44734;BME280;30462;52.446;-1.930;2023-02-17T01:39:18;100292.375;;;;
44734;BME280;30462;52.446;-1.930;2023-02-17T01:40:18;100290.4141;;;;
44734;BME280;30462;52.446;-1.930;2023-02-17T01:41:19;100298.3008;;;;
44734;BME280;30462;52.446;-1.930;2023-02-17T01:42:18;100309.4453;;;;
44734;BME280;30462;52.446;-1.930;2023-02-17T01:43:18;100305.1094;;;;
44734;BME280;30462;52.446;-1.930;2023-02-17T01:44:19;100316.3984;;;;
44734;BME280;30462;52.446;-1.930;2023-02-17T01:46:18;100292.2891;;;;
44734;BME280;30462;52.446;-1.930;2023-02-17T01:47:18;100324.1914;;;;
44734;BME280;30462;52.446;-1.930;2023-02-17T01:48:19;100323.6211;;;;
44734;BME280;30462;52.446;-1.930;2023-02-17T01:49:22;100303.3906;;;;
44734;BME280;30462;52.446;-1.930;2023-02-17T01:50:20;100316.3984;;;;
44734;BME280;30462;52.446;-1.930;2023-02-17T01:51:19;100323.7813;;;;
44734;BME280;30462;52.446;-1.930;2023-02-17T01:52:19;100330.1719;;;;
44734;BME280;30462;52.446;-1.930;2023-02-17T01:53:19;100330.3359;;;;
44734;BME280;30462;52.446;-1.930;2023-02-17T01:54:18;100333.7148;;;;
44734;BME280;30462;52.446;-1.930;2023-02-17T01:55:18;100329.1719;;;;
44734;BME280;30462;52.446;-1.930;2023-02-17T01:56:18;100327.2734;;;;
44734;BME280;30462;52.446;-1.930;2023-02-17T01:57:19;100320.9961;;;;
44734;BME280;30462;52.446;-1.930;2023-02-17T01:58:18;100324.9375;;;;
44734;BME280;30462;52.446;-1.930;2023-02-17T01:59:19;100325.6445;;;;
44734;BME280;30462;52.446;-1.930;2023-02-17T02:00:18;100325.7031;;;;
44734;BME280;30462;52.446;-1.930;2023-02-17T02:01:18;100336.5977;;;;
44734;BME280;30462;52.446;-1.930;2023-02-17T02:02:18;100329.7461;;;;
44734;BME280;30462;52.446;-1.930;2023-02-17T02:03:18;100344.2656;;;;
44734;BME280;30462;52.446;-1.930;2023-02-17T02:04:18;100351.6602;;;;
44734;BME280;30462;52.446;-1.930;2023-02-17T02:05:18;100353.4297;;;;
44734;BME280;30462;52.446;-1.930;2023-02-17T02:06:18;100346.6445;;;;
44734;BME280;30462;52.446;-1.930;2023-02-17T02:07:18;100352;;;;
44734;BME280;30462;52.446;-1.930;2023-02-17T02:08:18;100352.0195;;;;
44734;BME280;30462;52.446;-1.930;2023-02-17T02:09:19;100355.1016;;;;
44734;BME280;30462;52.446;-1.930;2023-02-17T02:10:18;100355.6992;;;;
44734;BME280;30462;52.446;-1.930;2023-02-17T02:11:18;100349.7969;;;;
44734;BME280;30462;52.446;-1.930;2023-02-17T02:12:20;100356.2461;;;;
44734;BME280;30462;52.446;-1.930;2023-02-17T02:13:18;100358.8477;;;;
44734;BME280;30462;52.446;-1.930;2023-02-17T02:14:18;100357.5977;;;;
44734;BME280;30462;52.446;-1.930;2023-02-17T02:15:19;100363.9922;;;;
44734;BME280;30462;52.446;-1.930;2023-02-17T02:16:19;100375.4141;;;;
44734;BME280;30462;52.446;-1.930;2023-02-17T02:28:20;100383.7109;;;;
44734;BME280;30462;52.446;-1.930;2023-02-17T02:34:20;100366.1016;;;;
44734;BME280;30462;52.446;-1.930;2023-02-17T02:35:21;100361.4805;;;;
44734;BME280;30462;52.446;-1.930;2023-02-17T02:36:18;100369.8086;;;;
44734;BME280;30462;52.446;-1.930;2023-02-17T02:37:19;100345.6758;;;;
44734;BME280;30462;52.446;-1.930;2023-02-17T02:38:19;100353.6055;;;;
44734;BME280;30462;52.446;-1.930;2023-02-17T02:39:19;100360.293;;;;
44734;BME280;30462;52.446;-1.930;2023-02-17T02:40:19;100359.5469;;;;
44734;BME280;30462;52.446;-1.930;2023-02-17T02:41:18;100361.5352;;;;
44734;BME280;30462;52.446;-1.930;2023-02-17T02:42:18;100357.6211;;;;
44734;BME280;30462;52.446;-1.930;2023-02-17T02:43:18;100358.7813;;;;
44734;BME280;30462;52.446;-1.930;2023-02-17T02:44:18;100349.0586;;;;
44734;BME280;30462;52.446;-1.930;2023-02-17T02:45:18;100347.9531;;;;
44734;BME280;30462;52.446;-1.930;2023-02-17T02:46:18;100340.2109;;;;
44734;BME280;30462;52.446;-1.930;2023-02-17T02:48:18;100349.2305;;;;
44734;BME280;30462;52.446;-1.930;2023-02-17T02:49:18;100342.9414;;;;
44734;BME280;30462;52.446;-1.930;2023-02-17T02:50:19;100346.3242;;;;
44734;BME280;30462;52.446;-1.930;2023-02-17T02:52:20;100336.6836;;;;
44734;BME280;30462;52.446;-1.930;2023-02-17T02:55:22;100330.7031;;;;
44734;BME280;30462;52.446;-1.930;2023-02-17T02:57:19;100318.6602;;;;
44734;BME280;30462;52.446;-1.930;2023-02-17T02:58:19;100327.8555;;;;
44734;BME280;30462;52.446;-1.930;2023-02-17T03:00:18;100325.2539;;;;
44734;BME280;30462;52.446;-1.930;2023-02-17T03:01:20;100312.7539;;;;
44734;BME280;30462;52.446;-1.930;2023-02-17T03:02:20;100323.2969;;;;
44734;BME280;30462;52.446;-1.930;2023-02-17T03:03:20;100318.7266;;;;
44734;BME280;30462;52.446;-1.930;2023-02-17T03:04:24;100329.5938;;;;
44734;BME280;30462;52.446;-1.930;2023-02-17T03:05:19;100328.8516;;;;
44734;BME280;30462;52.446;-1.930;2023-02-17T03:06:25;100333.1992;;;;
44734;BME280;30462;52.446;-1.930;2023-02-17T03:07:18;100331.4258;;;;
44734;BME280;30462;52.446;-1.930;2023-02-17T03:08:19;100333.4453;;;;
44734;BME280;30462;52.446;-1.930;2023-02-17T03:09:18;100333.8672;;;;
44734;BME280;30462;52.446;-1.930;2023-02-17T03:10:18;100328.9648;;;;
44734;BME280;30462;52.446;-1.930;2023-02-17T03:11:18;100331.0156;;;;
44734;BME280;30462;52.446;-1.930;2023-02-17T03:12:19;100323.9375;;;;
44734;BME280;30462;52.446;-1.930;2023-02-17T03:13:18;100331.5898;;;;
44734;BME280;30462;52.446;-1.930;2023-02-17T03:14:19;100335.9805;;;;
44734;BME280;30462;52.446;-1.930;2023-02-17T03:15:19;100326.1094;;;;
44734;BME280;30462;52.446;-1.930;2023-02-17T03:16:18;100330.5313;;;;
44734;BME280;30462;52.446;-1.930;2023-02-17T03:17:18;100324.1953;;;;
44734;BME280;30462;52.446;-1.930;2023-02-17T03:18:18;100324.6719;;;;
44734;BME280;30462;52.446;-1.930;2023-02-17T03:19:19;100338.6367;;;;
44734;BME280;30462;52.446;-1.930;2023-02-17T03:20:18;100335.0195;;;;
44734;BME280;30462;52.446;-1.930;2023-02-17T03:21:18;100339.8906;;;;
44734;BME280;30462;52.446;-1.930;2023-02-17T03:22:20;100342.4102;;;;
44734;BME280;30462;52.446;-1.930;2023-02-17T03:23:18;100338.4219;;;;
44734;BME280;30462;52.446;-1.930;2023-02-17T03:24:18;100339.2578;;;;
44734;BME280;30462;52.446;-1.930;2023-02-17T03:25:18;100332.9063;;;;
44734;BME280;30462;52.446;-1.930;2023-02-17T03:26:18;100343.6836;;;;
44734;BME280;30462;52.446;-1.930;2023-02-17T03:27:18;100334.1953;;;;
44734;BME280;30462;52.446;-1.930;2023-02-17T03:28:18;100316.6484;;;;
44734;BME280;30462;52.446;-1.930;2023-02-17T03:29:18;100326.7578;;;;
44734;BME280;30462;52.446;-1.930;2023-02-17T03:30:18;100326.4766;;;;
44734;BME280;30462;52.446;-1.930;2023-02-17T03:31:18;100330.3594;;;;
44734;BME280;30462;52.446;-1.930;2023-02-17T03:32:18;100332.0781;;;;
44734;BME280;30462;52.446;-1.930;2023-02-17T03:33:18;100324.6641;;;;
44734;BME280;30462;52.446;-1.930;2023-02-17T03:34:18;100323.0742;;;;
44734;BME280;30462;52.446;-1.930;2023-02-17T03:35:17;100314.2695;;;;
44734;BME280;30462;52.446;-1.930;2023-02-17T03:36:17;100317.9844;;;;
44734;BME280;30462;52.446;-1.930;2023-02-17T03:37:18;100311.7813;;;;
44734;BME280;30462;52.446;-1.930;2023-02-17T03:38:18;100312.5156;;;;
44734;BME280;30462;52.446;-1.930;2023-02-17T03:39:18;100309.9766;;;;
44734;BME280;30462;52.446;-1.930;2023-02-17T03:40:18;100309.25;;;;
44734;BME280;30462;52.446;-1.930;2023-02-17T03:41:18;100312.0117;;;;
44734;BME280;30462;52.446;-1.930;2023-02-17T03:42:18;100308.5586;;;;
44734;BME280;30462;52.446;-1.930;2023-02-17T03:43:18;100306.7148;;;;
44734;BME280;30462;52.446;-1.930;2023-02-17T03:44:18;100310.5625;;;;
44734;BME280;30462;52.446;-1.930;2023-02-17T03:45:18;100304.8711;;;;
44734;BME280;30462;52.446;-1.930;2023-02-17T03:46:18;100303.9922;;;;
44734;BME280;30462;52.446;-1.930;2023-02-17T03:47:18;100306.9883;;;;
44734;BME280;30462;52.446;-1.930;2023-02-17T03:48:17;100301.3281;;;;
44734;BME280;30462;52.446;-1.930;2023-02-17T03:49:18;100299.1953;;;;
44734;BME280;30462;52.446;-1.930;2023-02-17T03:50:18;100295.8945;;;;
44734;BME280;30462;52.446;-1.930;2023-02-17T03:51:19;100294.5234;;;;
44734;BME280;30462;52.446;-1.930;2023-02-17T03:52:18;100293.9922;;;;
44734;BME280;30462;52.446;-1.930;2023-02-17T03:53:18;100292.5781;;;;
44734;BME280;30462;52.446;-1.930;2023-02-17T03:54:18;100298.0547;;;;
44734;BME280;30462;52.446;-1.930;2023-02-17T03:55:18;100292.2617;;;;
44734;BME280;30462;52.446;-1.930;2023-02-17T03:56:18;100281.2031;;;;
44734;BME280;30462;52.446;-1.930;2023-02-17T03:57:18;100290.8789;;;;
44734;BME280;30462;52.446;-1.930;2023-02-17T03:58:18;100281.1289;;;;
44734;BME280;30462;52.446;-1.930;2023-02-17T03:59:17;100283.7148;;;;
44734;BME280;30462;52.446;-1.930;2023-02-17T04:00:19;100272.0977;;;;
44734;BME280;30462;52.446;-1.930;2023-02-17T04:01:18;100287.3984;;;;
44734;BME280;30462;52.446;-1.930;2023-02-17T04:02:18;100283.5469;;;;
44734;BME280;30462;52.446;-1.930;2023-02-17T04:03:18;100291.4102;;;;
44734;BME280;30462;52.446;-1.930;2023-02-17T04:04:18;100290.1992;;;;
44734;BME280;30462;52.446;-1.930;2023-02-17T04:05:18;100275.9258;;;;
44734;BME280;30462;52.446;-1.930;2023-02-17T04:06:18;100293.0898;;;;
44734;BME280;30462;52.446;-1.930;2023-02-17T04:07:18;100289.2148;;;;
44734;BME280;30462;52.446;-1.930;2023-02-17T04:08:19;100286.5938;;;;
44734;BME280;30462;52.446;-1.930;2023-02-17T04:09:18;100288.8008;;;;
44734;BME280;30462;52.446;-1.930;2023-02-17T04:10:18;100281.1367;;;;
44734;BME280;30462;52.446;-1.930;2023-02-17T04:11:18;100296.1211;;;;
44734;BME280;30462;52.446;-1.930;2023-02-17T04:12:18;100280.3516;;;;
44734;BME280;30462;52.446;-1.930;2023-02-17T04:13:19;100290.0195;;;;
44734;BME280;30462;52.446;-1.930;2023-02-17T04:14:18;100291.7852;;;;
44734;BME280;30462;52.446;-1.930;2023-02-17T04:15:17;100275.0703;;;;
44734;BME280;30462;52.446;-1.930;2023-02-17T04:16:18;100286.0547;;;;
44734;BME280;30462;52.446;-1.930;2023-02-17T04:17:18;100284.7539;;;;
44734;BME280;30462;52.446;-1.930;2023-02-17T04:18:18;100290.5039;;;;
44734;BME280;30462;52.446;-1.930;2023-02-17T04:19:18;100286.6914;;;;
44734;BME280;30462;52.446;-1.930;2023-02-17T04:20:18;100285.0977;;;;
44734;BME280;30462;52.446;-1.930;2023-02-17T04:21:18;100281.7578;;;;
44734;BME280;30462;52.446;-1.930;2023-02-17T04:22:18;100278.8672;;;;
44734;BME280;30462;52.446;-1.930;2023-02-17T04:23:18;100284.9883;;;;
44734;BME280;30462;52.446;-1.930;2023-02-17T04:24:18;100283.6914;;;;
44734;BME280;30462;52.446;-1.930;2023-02-17T04:25:18;100283.8711;;;;
44734;BME280;30462;52.446;-1.930;2023-02-17T04:26:18;100282.3906;;;;
44734;BME280;30462;52.446;-1.930;2023-02-17T04:27:18;100281.9609;;;;
44734;BME280;30462;52.446;-1.930;2023-02-17T04:28:18;100281.9492;;;;
44734;BME280;30462;52.446;-1.930;2023-02-17T04:29:17;100281.582;;;;
44734;BME280;30462;52.446;-1.930;2023-02-17T04:30:18;100277.207;;;;
44734;BME280;30462;52.446;-1.930;2023-02-17T04:31:18;100269.2148;;;;
44734;BME280;30462;52.446;-1.930;2023-02-17T04:32:17;100266.1523;;;;
44734;BME280;30462;52.446;-1.930;2023-02-17T04:33:18;100258.9883;;;;
44734;BME280;30462;52.446;-1.930;2023-02-17T04:34:17;100260.6797;;;;
44734;BME280;30462;52.446;-1.930;2023-02-17T04:35:18;100259.2109;;;;
44734;BME280;30462;52.446;-1.930;2023-02-17T04:36:18;100261.6719;;;;
44734;BME280;30462;52.446;-1.930;2023-02-17T04:37:18;100261.1641;;;;
44734;BME280;30462;52.446;-1.930;2023-02-17T04:38:18;100263.1328;;;;
44734;BME280;30462;52.446;-1.930;2023-02-17T04:39:18;100262.2656;;;;
44734;BME280;30462;52.446;-1.930;2023-02-17T04:40:18;100269.6367;;;;
44734;BME280;30462;52.446;-1.930;2023-02-17T04:41:18;100270.7852;;;;
44734;BME280;30462;52.446;-1.930;2023-02-17T04:42:18;100267.4609;;;;
44734;BME280;30462;52.446;-1.930;2023-02-17T04:43:18;100258.9219;;;;
44734;BME280;30462;52.446;-1.930;2023-02-17T04:44:18;100263;;;;
44734;BME280;30462;52.446;-1.930;2023-02-17T04:45:18;100261.0859;;;;
44734;BME280;30462;52.446;-1.930;2023-02-17T04:46:17;100251.5625;;;;
44734;BME280;30462;52.446;-1.930;2023-02-17T04:47:18;100259.5;;;;
44734;BME280;30462;52.446;-1.930;2023-02-17T04:48:18;100256.7188;;;;
44734;BME280;30462;52.446;-1.930;2023-02-17T04:49:18;100259.3359;;;;
44734;BME280;30462;52.446;-1.930;2023-02-17T04:50:19;100263.3398;;;;
44734;BME280;30462;52.446;-1.930;2023-02-17T04:51:18;100258.4727;;;;
44734;BME280;30462;52.446;-1.930;2023-02-17T04:52:18;100254.707;;;;
44734;BME280;30462;52.446;-1.930;2023-02-17T04:53:18;100264.875;;;;
44734;BME280;30462;52.446;-1.930;2023-02-17T04:54:17;100252.3281;;;;
44734;BME280;30462;52.446;-1.930;2023-02-17T04:55:18;100260.7461;;;;
44734;BME280;30462;52.446;-1.930;2023-02-17T04:56:18;100258.5742;;;;
44734;BME280;30462;52.446;-1.930;2023-02-17T04:57:18;100258.0508;;;;
44734;BME280;30462;52.446;-1.930;2023-02-17T04:58:18;100263.6953;;;;
44734;BME280;30462;52.446;-1.930;2023-02-17T04:59:18;100259.1523;;;;
44734;BME280;30462;52.446;-1.930;2023-02-17T05:00:19;100259.4922;;;;
44734;BME280;30462;52.446;-1.930;2023-02-17T05:01:18;100256.418;;;;
44734;BME280;30462;52.446;-1.930;2023-02-17T05:02:18;100250.9063;;;;
44734;BME280;30462;52.446;-1.930;2023-02-17T05:03:18;100228.2539;;;;
44734;BME280;30462;52.446;-1.930;2023-02-17T05:04:18;100248.9648;;;;
44734;BME280;30462;52.446;-1.930;2023-02-17T05:05:18;100248.8047;;;;
44734;BME280;30462;52.446;-1.930;2023-02-17T05:06:18;100250.1172;;;;
44734;BME280;30462;52.446;-1.930;2023-02-17T05:07:18;100246.1875;;;;
44734;BME280;30462;52.446;-1.930;2023-02-17T05:08:18;100247.875;;;;
44734;BME280;30462;52.446;-1.930;2023-02-17T05:09:18;100247.0078;;;;
44734;BME280;30462;52.446;-1.930;2023-02-17T05:10:18;100237.4844;;;;
44734;BME280;30462;52.446;-1.930;2023-02-17T05:11:18;100239.2305;;;;
44734;BME280;30462;52.446;-1.930;2023-02-17T05:12:18;100240.6641;;;;
44734;BME280;30462;52.446;-1.930;2023-02-17T05:13:18;100241.1953;;;;
44734;BME280;30462;52.446;-1.930;2023-02-17T05:14:18;100239.5078;;;;
44734;BME280;30462;52.446;-1.930;2023-02-17T05:15:18;100235.7813;;;;
44734;BME280;30462;52.446;-1.930;2023-02-17T05:16:18;100236.0117;;;;
44734;BME280;30462;52.446;-1.930;2023-02-17T05:17:18;100232.125;;;;
44734;BME280;30462;52.446;-1.930;2023-02-17T05:18:18;100226.9648;;;;
44734;BME280;30462;52.446;-1.930;2023-02-17T05:19:18;100229.4766;;;;
44734;BME280;30462;52.446;-1.930;2023-02-17T05:20:18;100235.9297;;;;
44734;BME280;30462;52.446;-1.930;2023-02-17T05:21:18;100224.375;;;;
44734;BME280;30462;52.446;-1.930;2023-02-17T05:22:18;100232.3555;;;;
44734;BME280;30462;52.446;-1.930;2023-02-17T05:23:18;100230.0039;;;;
44734;BME280;30462;52.446;-1.930;2023-02-17T05:24:18;100228.4805;;;;
44734;BME280;30462;52.446;-1.930;2023-02-17T05:25:18;100230.0234;;;;
44734;BME280;30462;52.446;-1.930;2023-02-17T05:26:18;100227.3359;;;;
44734;BME280;30462;52.446;-1.930;2023-02-17T05:27:18;100224.9375;;;;
44734;BME280;30462;52.446;-1.930;2023-02-17T05:28:18;100228.7539;;;;
44734;BME280;30462;52.446;-1.930;2023-02-17T05:29:18;100221.0469;;;;
44734;BME280;30462;52.446;-1.930;2023-02-17T05:30:18;100201.2852;;;;
44734;BME280;30462;52.446;-1.930;2023-02-17T05:31:18;100204.3398;;;;
44734;BME280;30462;52.446;-1.930;2023-02-17T05:32:18;100206.2539;;;;
44734;BME280;30462;52.446;-1.930;2023-02-17T05:33:17;100191.1797;;;;
44734;BME280;30462;52.446;-1.930;2023-02-17T05:34:18;100196.3164;;;;
44734;BME280;30462;52.446;-1.930;2023-02-17T05:35:18;100196.3086;;;;
44734;BME280;30462;52.446;-1.930;2023-02-17T05:36:18;100201.4961;;;;
44734;BME280;30462;52.446;-1.930;2023-02-17T05:37:17;100192.1992;;;;
44734;BME280;30462;52.446;-1.930;2023-02-17T05:38:18;100198.8477;;;;
44734;BME280;30462;52.446;-1.930;2023-02-17T05:39:19;100196.7383;;;;
44734;BME280;30462;52.446;-1.930;2023-02-17T05:40:18;100199.8555;;;;
44734;BME280;30462;52.446;-1.930;2023-02-17T05:41:18;100206.8438;;;;
44734;BME280;30462;52.446;-1.930;2023-02-17T05:42:18;100207.293;;;;
44734;BME280;30462;52.446;-1.930;2023-02-17T05:43:18;100213.2539;;;;
44734;BME280;30462;52.446;-1.930;2023-02-17T05:44:17;100192.6875;;;;
44734;BME280;30462;52.446;-1.930;2023-02-17T05:45:18;100204.9336;;;;
44734;BME280;30462;52.446;-1.930;2023-02-17T05:46:18;100204.3711;;;;
44734;BME280;30462;52.446;-1.930;2023-02-17T05:47:19;100205.5234;;;;
44734;BME280;30462;52.446;-1.930;2023-02-17T05:48:18;100200.8906;;;;
44734;BME280;30462;52.446;-1.930;2023-02-17T05:49:18;100206.1406;;;;
44734;BME280;30462;52.446;-1.930;2023-02-17T05:50:18;100210.9883;;;;
44734;BME280;30462;52.446;-1.930;2023-02-17T05:51:18;100202.8984;;;;
44734;BME280;30462;52.446;-1.930;2023-02-17T05:52:18;100212.6523;;;;
44734;BME280;30462;52.446;-1.930;2023-02-17T05:53:18;100216.1172;;;;
44734;BME280;30462;52.446;-1.930;2023-02-17T05:54:18;100211.3516;;;;
44734;BME280;30462;52.446;-1.930;2023-02-17T05:55:18;100212.3984;;;;
44734;BME280;30462;52.446;-1.930;2023-02-17T05:56:18;100210.8594;;;;
44734;BME280;30462;52.446;-1.930;2023-02-17T05:57:18;100220.0508;;;;
44734;BME280;30462;52.446;-1.930;2023-02-17T05:58:18;100223.3945;;;;
44734;BME280;30462;52.446;-1.930;2023-02-17T05:59:17;100223.6797;;;;
44734;BME280;30462;52.446;-1.930;2023-02-17T06:00:18;100229.1172;;;;
44734;BME280;30462;52.446;-1.930;2023-02-17T06:01:17;100223.5;;;;
44734;BME280;30462;52.446;-1.930;2023-02-17T06:02:17;100232.6055;;;;
44734;BME280;30462;52.446;-1.930;2023-02-17T06:03:18;100240.3633;;;;
44734;BME280;30462;52.446;-1.930;2023-02-17T06:04:18;100247.0586;;;;
44734;BME280;30462;52.446;-1.930;2023-02-17T06:05:17;100258.6602;;;;
44734;BME280;30462;52.446;-1.930;2023-02-17T06:06:17;100253.8047;;;;
44734;BME280;30462;52.446;-1.930;2023-02-17T06:07:18;100253.6484;;;;
44734;BME280;30462;52.446;-1.930;2023-02-17T06:08:17;100267.4141;;;;